sensor_id;sensor_type;location;lat;lon;timestamp;pressure;altitude;pressure_sealevel;temperature;humidity
18022;BME280;9136;48.822;7.966;2023-04-20T00:02:33;100264.63;;;5.33;100.00
18022;BME280;9136;48.822;7.966;2023-04-20T00:05:21;100249.09;;;5.24;100.00
18022;BME280;9136;48.822;7.966;2023-04-20T00:08:08;100275.84;;;5.37;100.00
18022;BME280;9136;48.822;7.966;2023-04-20T00:10:56;100269.84;;;5.32;100.00
18022;BME280;9136;48.822;7.966;2023-04-20T00:13:44;100237.97;;;5.07;100.00
18022;BME280;9136;48.822;7.966;2023-04-20T00:16:32;100253.59;;;5.07;100.00
18022;BME280;9136;48.822;7.966;2023-04-20T00:19:21;100257.94;;;5.06;100.00
18022;BME280;9136;48.822;7.966;2023-04-20T00:22:09;100237.25;;;4.89;100.00
18022;BME280;9136;48.822;7.966;2023-04-20T00:24:58;100215.66;;;4.81;100.00
18022;BME280;9136;48.822;7.966;2023-04-20T00:27:46;100214.81;;;4.79;100.00
18022;BME280;9136;48.822;7.966;2023-04-20T00:30:34;100220.00;;;4.81;100.00
18022;BME280;9136;48.822;7.966;2023-04-20T00:33:22;100219.94;;;4.87;100.00
18022;BME280;9136;48.822;7.966;2023-04-20T00:36:11;100200.06;;;4.78;100.00
18022;BME280;9136;48.822;7.966;2023-04-20T00:38:59;100189.66;;;4.78;100.00
18022;BME280;9136;48.822;7.966;2023-04-20T00:41:47;100223.44;;;4.86;100.00
18022;BME280;9136;48.822;7.966;2023-04-20T00:44:35;100186.25;;;4.72;100.00
18022;BME280;9136;48.822;7.966;2023-04-20T00:47:23;100171.59;;;4.62;100.00
18022;BME280;9136;48.822;7.966;2023-04-20T00:50:11;100206.13;;;4.79;100.00
18022;BME280;9136;48.822;7.966;2023-04-20T00:53:01;100205.28;;;4.78;100.00
18022;BME280;9136;48.822;7.966;2023-04-20T00:55:49;100195.84;;;4.67;100.00
18022;BME280;9136;48.822;7.966;2023-04-20T00:58:37;100198.41;;;4.70;100.00
18022;BME280;9136;48.822;7.966;2023-04-20T01:01:25;100172.63;;;4.47;100.00
18022;BME280;9136;48.822;7.966;2023-04-20T01:04:14;100183.81;;;4.53;100.00
18022;BME280;9136;48.822;7.966;2023-04-20T01:07:03;100176.13;;;4.41;100.00
18022;BME280;9136;48.822;7.966;2023-04-20T01:09:52;100175.25;;;4.41;100.00
18022;BME280;9136;48.822;7.966;2023-04-20T01:12:40;100158.00;;;4.32;100.00
18022;BME280;9136;48.822;7.966;2023-04-20T01:15:29;100177.00;;;4.40;100.00
18022;BME280;9136;48.822;7.966;2023-04-20T01:18:17;100180.44;;;4.45;100.00
18022;BME280;9136;48.822;7.966;2023-04-20T01:21:05;100178.75;;;4.40;100.00
18022;BME280;9136;48.822;7.966;2023-04-20T01:23:55;100164.09;;;4.28;100.00
18022;BME280;9136;48.822;7.966;2023-04-20T01:26:43;100154.66;;;4.18;100.00
18022;BME280;9136;48.822;7.966;2023-04-20T01:29:30;100164.13;;;4.25;100.00
18022;BME280;9136;48.822;7.966;2023-04-20T01:32:19;100159.00;;;4.17;100.00
18022;BME280;9136;48.822;7.966;2023-04-20T01:35:08;100147.69;;;4.20;100.00
18022;BME280;9136;48.822;7.966;2023-04-20T01:37:56;100151.16;;;4.20;100.00
18022;BME280;9136;48.822;7.966;2023-04-20T01:40:46;100144.28;;;4.16;100.00
18022;BME280;9136;48.822;7.966;2023-04-20T01:43:35;100126.97;;;4.11;100.00
18022;BME280;9136;48.822;7.966;2023-04-20T01:46:23;100126.91;;;4.18;100.00
18022;BME280;9136;48.822;7.966;2023-04-20T01:49:11;100122.56;;;4.19;100.00
18022;BME280;9136;48.822;7.966;2023-04-20T01:51:59;100122.56;;;4.20;100.00
18022;BME280;9136;48.822;7.966;2023-04-20T01:54:47;100119.09;;;4.20;100.00
18022;BME280;9136;48.822;7.966;2023-04-20T01:57:36;100113.94;;;4.17;100.00
18022;BME280;9136;48.822;7.966;2023-04-20T02:00:24;100120.03;;;4.13;100.00
18022;BME280;9136;48.822;7.966;2023-04-20T02:03:13;100104.41;;;4.13;100.00
18022;BME280;9136;48.822;7.966;2023-04-20T02:06:01;100116.53;;;4.14;100.00
18022;BME280;9136;48.822;7.966;2023-04-20T02:08:49;100113.09;;;4.12;100.00
18022;BME280;9136;48.822;7.966;2023-04-20T02:11:37;100091.56;;;3.99;100.00
18022;BME280;9136;48.822;7.966;2023-04-20T02:14:26;100117.47;;;4.08;100.00
18022;BME280;9136;48.822;7.966;2023-04-20T02:17:16;100109.69;;;4.07;100.00
18022;BME280;9136;48.822;7.966;2023-04-20T02:20:05;100090.72;;;3.97;100.00
18022;BME280;9136;48.822;7.966;2023-04-20T02:22:54;100083.78;;;3.96;100.00
18022;BME280;9136;48.822;7.966;2023-04-20T02:25:42;100081.19;;;3.94;100.00
18022;BME280;9136;48.822;7.966;2023-04-20T02:28:30;100098.44;;;4.06;100.00
18022;BME280;9136;48.822;7.966;2023-04-20T02:31:20;100107.97;;;4.06;100.00
18022;BME280;9136;48.822;7.966;2023-04-20T02:34:08;100076.03;;;3.88;100.00
18022;BME280;9136;48.822;7.966;2023-04-20T02:36:56;100078.59;;;3.91;100.00
18022;BME280;9136;48.822;7.966;2023-04-20T02:39:44;100081.19;;;3.94;100.00
18022;BME280;9136;48.822;7.966;2023-04-20T02:42:31;100077.75;;;3.91;100.00
18022;BME280;9136;48.822;7.966;2023-04-20T02:45:21;100065.72;;;3.79;100.00
18022;BME280;9136;48.822;7.966;2023-04-20T02:48:11;100070.88;;;3.87;100.00
18022;BME280;9136;48.822;7.966;2023-04-20T02:50:59;100066.53;;;3.87;100.00
18022;BME280;9136;48.822;7.966;2023-04-20T02:53:46;100096.78;;;3.97;100.00
18022;BME280;9136;48.822;7.966;2023-04-20T02:56:37;100059.63;;;3.83;100.00
18022;BME280;9136;48.822;7.966;2023-04-20T02:59:25;100065.66;;;3.85;100.00
18022;BME280;9136;48.822;7.966;2023-04-20T03:02:13;100055.25;;;3.85;100.00
18022;BME280;9136;48.822;7.966;2023-04-20T03:05:03;100060.47;;;3.88;100.00
18022;BME280;9136;48.822;7.966;2023-04-20T03:07:51;100042.31;;;3.82;100.00
18022;BME280;9136;48.822;7.966;2023-04-20T03:10:39;100046.56;;;3.91;100.00
18022;BME280;9136;48.822;7.966;2023-04-20T03:13:26;100024.97;;;3.83;100.00
18022;BME280;9136;48.822;7.966;2023-04-20T03:16:16;100025.00;;;3.81;100.00
18022;BME280;9136;48.822;7.966;2023-04-20T03:19:03;100044.00;;;3.89;100.00
18022;BME280;9136;48.822;7.966;2023-04-20T03:21:53;100059.47;;;4.00;100.00
18022;BME280;9136;48.822;7.966;2023-04-20T03:24:40;100051.75;;;3.91;100.00
18022;BME280;9136;48.822;7.966;2023-04-20T03:27:28;100030.22;;;3.78;100.00
18022;BME280;9136;48.822;7.966;2023-04-20T03:30:16;100020.78;;;3.69;100.00
18022;BME280;9136;48.822;7.966;2023-04-20T03:33:04;100049.16;;;3.92;100.00
18022;BME280;9136;48.822;7.966;2023-04-20T03:35:52;100037.19;;;3.71;100.00
18022;BME280;9136;48.822;7.966;2023-04-20T03:38:41;100032.00;;;3.73;100.00
18022;BME280;9136;48.822;7.966;2023-04-20T03:41:31;100042.34;;;3.76;100.00
18022;BME280;9136;48.822;7.966;2023-04-20T03:44:19;100044.09;;;3.77;100.00
18022;BME280;9136;48.822;7.966;2023-04-20T03:47:08;100044.91;;;3.82;100.00
18022;BME280;9136;48.822;7.966;2023-04-20T03:49:56;100042.31;;;3.81;100.00
18022;BME280;9136;48.822;7.966;2023-04-20T03:52:44;100032.03;;;3.65;100.00
18022;BME280;9136;48.822;7.966;2023-04-20T03:55:35;100028.66;;;3.59;100.00
18022;BME280;9136;48.822;7.966;2023-04-20T03:58:24;100013.13;;;3.50;100.00
18022;BME280;9136;48.822;7.966;2023-04-20T04:01:12;100036.41;;;3.63;100.00
18022;BME280;9136;48.822;7.966;2023-04-20T04:04:01;100025.22;;;3.54;100.00
18022;BME280;9136;48.822;7.966;2023-04-20T04:06:49;100049.41;;;3.62;100.00
18022;BME280;9136;48.822;7.966;2023-04-20T04:09:37;100036.47;;;3.57;100.00
18022;BME280;9136;48.822;7.966;2023-04-20T04:12:27;100014.00;;;3.45;100.00
18022;BME280;9136;48.822;7.966;2023-04-20T04:15:15;100026.94;;;3.53;100.00
18022;BME280;9136;48.822;7.966;2023-04-20T04:18:04;100049.44;;;3.59;100.00
18022;BME280;9136;48.822;7.966;2023-04-20T04:20:52;100026.13;;;3.45;100.00
18022;BME280;9136;48.822;7.966;2023-04-20T04:23:40;100035.66;;;3.44;100.00
18022;BME280;9136;48.822;7.966;2023-04-20T04:26:28;100044.28;;;3.47;100.00
18022;BME280;9136;48.822;7.966;2023-04-20T04:29:18;100030.53;;;3.38;100.00
18022;BME280;9136;48.822;7.966;2023-04-20T04:32:06;100001.97;;;3.35;100.00
18022;BME280;9136;48.822;7.966;2023-04-20T04:34:54;100044.28;;;3.47;100.00
18022;BME280;9136;48.822;7.966;2023-04-20T04:37:42;100006.34;;;3.30;100.00
18022;BME280;9136;48.822;7.966;2023-04-20T04:40:30;100008.91;;;3.33;100.00
18022;BME280;9136;48.822;7.966;2023-04-20T04:43:19;100002.91;;;3.28;100.00
18022;BME280;9136;48.822;7.966;2023-04-20T04:46:10;100028.78;;;3.40;100.00
18022;BME280;9136;48.822;7.966;2023-04-20T04:48:58;100039.91;;;3.56;100.00
18022;BME280;9136;48.822;7.966;2023-04-20T04:51:46;100010.53;;;3.47;100.00
18022;BME280;9136;48.822;7.966;2023-04-20T04:54:34;100020.91;;;3.53;100.00
18022;BME280;9136;48.822;7.966;2023-04-20T04:57:23;99999.34;;;3.40;100.00
18022;BME280;9136;48.822;7.966;2023-04-20T05:00:12;100010.56;;;3.48;100.00
18022;BME280;9136;48.822;7.966;2023-04-20T05:03:02;100019.19;;;3.45;100.00
18022;BME280;9136;48.822;7.966;2023-04-20T05:05:50;100036.41;;;3.63;100.00
18022;BME280;9136;48.822;7.966;2023-04-20T05:08:38;100019.94;;;3.63;100.00
18022;BME280;9136;48.822;7.966;2023-04-20T05:11:26;100032.91;;;3.66;100.00
18022;BME280;9136;48.822;7.966;2023-04-20T05:14:14;100023.38;;;3.66;100.00
18022;BME280;9136;48.822;7.966;2023-04-20T05:17:03;100042.34;;;3.76;100.00
18022;BME280;9136;48.822;7.966;2023-04-20T05:19:52;100046.69;;;3.76;100.00
18022;BME280;9136;48.822;7.966;2023-04-20T05:22:40;100026.78;;;3.74;100.00
18022;BME280;9136;48.822;7.966;2023-04-20T05:25:28;100029.38;;;3.78;100.00
18022;BME280;9136;48.822;7.966;2023-04-20T05:28:17;100026.75;;;3.79;100.00
18022;BME280;9136;48.822;7.966;2023-04-20T05:31:06;100011.19;;;3.74;100.00
18022;BME280;9136;48.822;7.966;2023-04-20T05:33:54;100012.88;;;3.82;100.00
18022;BME280;9136;48.822;7.966;2023-04-20T05:36:43;100036.13;;;3.94;100.00
18022;BME280;9136;48.822;7.966;2023-04-20T05:39:32;100024.91;;;3.90;100.00
18022;BME280;9136;48.822;7.966;2023-04-20T05:42:20;100012.81;;;3.89;100.00
18022;BME280;9136;48.822;7.966;2023-04-20T05:45:09;100050.66;;;4.15;100.00
18022;BME280;9136;48.822;7.966;2023-04-20T05:47:58;100030.84;;;4.08;100.00
18022;BME280;9136;48.822;7.966;2023-04-20T05:50:45;100028.09;;;4.20;100.00
18022;BME280;9136;48.822;7.966;2023-04-20T05:53:35;100006.53;;;4.12;100.00
18022;BME280;9136;48.822;7.966;2023-04-20T05:56:23;100006.41;;;4.22;100.00
18022;BME280;9136;48.822;7.966;2023-04-20T05:59:11;100042.59;;;4.45;100.00
18022;BME280;9136;48.822;7.966;2023-04-20T06:01:59;100014.91;;;4.40;100.00
18022;BME280;9136;48.822;7.966;2023-04-20T06:04:46;100019.94;;;4.52;100.00
18022;BME280;9136;48.822;7.966;2023-04-20T06:07:34;100029.41;;;4.60;100.00
18022;BME280;9136;48.822;7.966;2023-04-20T06:10:24;100013.81;;;4.59;100.00
18022;BME280;9136;48.822;7.966;2023-04-20T06:13:12;100000.81;;;4.59;100.00
18022;BME280;9136;48.822;7.966;2023-04-20T06:16:00;100013.56;;;4.79;100.00
18022;BME280;9136;48.822;7.966;2023-04-20T06:18:48;100010.03;;;4.84;100.00
18022;BME280;9136;48.822;7.966;2023-04-20T06:21:37;99984.91;;;4.83;100.00
18022;BME280;9136;48.822;7.966;2023-04-20T06:24:24;99989.91;;;4.97;100.00
18022;BME280;9136;48.822;7.966;2023-04-20T06:27:14;99997.53;;;5.12;100.00
18022;BME280;9136;48.822;7.966;2023-04-20T06:30:03;100010.28;;;5.31;100.00
18022;BME280;9136;48.822;7.966;2023-04-20T06:32:51;100016.28;;;5.34;100.00
18022;BME280;9136;48.822;7.966;2023-04-20T06:35:39;100000.44;;;5.48;100.00
18022;BME280;9136;48.822;7.966;2023-04-20T06:38:26;100002.94;;;5.56;100.00
18022;BME280;9136;48.822;7.966;2023-04-20T06:41:14;100004.56;;;5.63;100.00
18022;BME280;9136;48.822;7.966;2023-04-20T06:44:03;99989.84;;;5.60;100.00
18022;BME280;9136;48.822;7.966;2023-04-20T06:46:52;100010.38;;;5.79;100.00
18022;BME280;9136;48.822;7.966;2023-04-20T06:49:40;99988.56;;;5.84;100.00
18022;BME280;9136;48.822;7.966;2023-04-20T06:52:28;100006.66;;;5.95;100.00
18022;BME280;9136;48.822;7.966;2023-04-20T06:55:17;100000.59;;;5.94;100.00
18022;BME280;9136;48.822;7.966;2023-04-20T06:58:07;99989.22;;;6.00;100.00
18022;BME280;9136;48.822;7.966;2023-04-20T07:00:57;100002.81;;;6.16;100.00
18022;BME280;9136;48.822;7.966;2023-04-20T07:03:44;100000.03;;;6.25;100.00
18022;BME280;9136;48.822;7.966;2023-04-20T07:06:32;100015.16;;;6.52;100.00
18022;BME280;9136;48.822;7.966;2023-04-20T07:09:20;100004.59;;;6.60;100.00
18022;BME280;9136;48.822;7.966;2023-04-20T07:12:08;99991.41;;;6.65;100.00
18022;BME280;9136;48.822;7.966;2023-04-20T07:14:56;99999.25;;;6.66;100.00
18022;BME280;9136;48.822;7.966;2023-04-20T07:17:45;99973.06;;;6.69;100.00
18022;BME280;9136;48.822;7.966;2023-04-20T07:20:33;100002.13;;;6.94;100.00
18022;BME280;9136;48.822;7.966;2023-04-20T07:23:21;99994.00;;;7.08;100.00
18022;BME280;9136;48.822;7.966;2023-04-20T07:26:09;99987.88;;;7.09;100.00
18022;BME280;9136;48.822;7.966;2023-04-20T07:28:57;99973.09;;;7.08;100.00
18022;BME280;9136;48.822;7.966;2023-04-20T07:31:45;99969.13;;;7.29;100.00
18022;BME280;9136;48.822;7.966;2023-04-20T07:34:34;99981.91;;;7.41;100.00
18022;BME280;9136;48.822;7.966;2023-04-20T07:37:24;99950.72;;;7.33;100.00
18022;BME280;9136;48.822;7.966;2023-04-20T07:40:12;99978.25;;;7.48;100.00
18022;BME280;9136;48.822;7.966;2023-04-20T07:43:00;99956.59;;;7.44;100.00
18022;BME280;9136;48.822;7.966;2023-04-20T07:45:47;99996.28;;;7.59;100.00
18022;BME280;9136;48.822;7.966;2023-04-20T07:48:35;99967.53;;;7.59;100.00
18022;BME280;9136;48.822;7.966;2023-04-20T07:51:25;99983.00;;;7.68;100.00
18022;BME280;9136;48.822;7.966;2023-04-20T07:54:15;99988.75;;;7.82;100.00
18022;BME280;9136;48.822;7.966;2023-04-20T07:57:03;99962.72;;;7.78;100.00
18022;BME280;9136;48.822;7.966;2023-04-20T07:59:51;99975.78;;;8.12;100.00
18022;BME280;9136;48.822;7.966;2023-04-20T08:02:39;99983.41;;;8.21;100.00
18022;BME280;9136;48.822;7.966;2023-04-20T08:05:27;99996.91;;;8.38;100.00
18022;BME280;9136;48.822;7.966;2023-04-20T08:08:16;99964.56;;;8.07;97.81
18022;BME280;9136;48.822;7.966;2023-04-20T08:11:04;99961.81;;;7.79;100.00
18022;BME280;9136;48.822;7.966;2023-04-20T08:13:53;99992.88;;;7.92;100.00
18022;BME280;9136;48.822;7.966;2023-04-20T08:16:43;99967.53;;;7.94;100.00
18022;BME280;9136;48.822;7.966;2023-04-20T08:19:31;99981.38;;;8.30;100.00
18022;BME280;9136;48.822;7.966;2023-04-20T08:22:19;99984.03;;;8.62;100.00
18022;BME280;9136;48.822;7.966;2023-04-20T08:25:09;99957.06;;;8.87;96.12
18022;BME280;9136;48.822;7.966;2023-04-20T08:27:58;99945.34;;;9.01;97.49
18022;BME280;9136;48.822;7.966;2023-04-20T08:30:49;99934.63;;;9.08;95.95
18022;BME280;9136;48.822;7.966;2023-04-20T08:33:44;99937.81;;;8.90;93.49
18022;BME280;9136;48.822;7.966;2023-04-20T08:36:35;99934.06;;;8.99;97.49
18022;BME280;9136;48.822;7.966;2023-04-20T08:47:08;99934.63;;;9.08;88.04
18022;BME280;9136;48.822;7.966;2023-04-20T08:49:58;99940.78;;;9.34;93.29
18022;BME280;9136;48.822;7.966;2023-04-20T08:52:46;99935.38;;;9.40;94.45
18022;BME280;9136;48.822;7.966;2023-04-20T08:55:35;99918.97;;;9.60;94.63
18022;BME280;9136;48.822;7.966;2023-04-20T08:58:23;99945.13;;;9.88;89.23
18022;BME280;9136;48.822;7.966;2023-04-20T09:01:12;99947.38;;;9.98;95.65
18022;BME280;9136;48.822;7.966;2023-04-20T09:04:01;99953.53;;;10.24;86.91
18022;BME280;9136;48.822;7.966;2023-04-20T09:06:51;99956.50;;;10.38;81.91
18022;BME280;9136;48.822;7.966;2023-04-20T09:09:40;99917.56;;;10.26;84.15
18022;BME280;9136;48.822;7.966;2023-04-20T09:12:27;99929.38;;;10.13;83.90
18022;BME280;9136;48.822;7.966;2023-04-20T09:15:26;99926.44;;;9.97;81.66
18022;BME280;9136;48.822;7.966;2023-04-20T09:18:15;99936.19;;;10.18;83.52
18022;BME280;9136;48.822;7.966;2023-04-20T09:21:09;99922.56;;;10.32;85.54
18022;BME280;9136;48.822;7.966;2023-04-20T09:24:01;99925.25;;;11.01;90.34
18022;BME280;9136;48.822;7.966;2023-04-20T09:26:51;99902.06;;;11.32;86.71
18022;BME280;9136;48.822;7.966;2023-04-20T09:29:39;99902.88;;;11.55;78.68
18022;BME280;9136;48.822;7.966;2023-04-20T09:32:27;99906.22;;;11.38;69.79
18022;BME280;9136;48.822;7.966;2023-04-20T09:35:21;99924.75;;;11.13;78.58
18022;BME280;9136;48.822;7.966;2023-04-20T09:38:15;99885.25;;;11.14;85.51
18022;BME280;9136;48.822;7.966;2023-04-20T09:41:03;99920.78;;;11.25;79.84
18022;BME280;9136;48.822;7.966;2023-04-20T09:43:54;99881.41;;;11.23;79.15
18022;BME280;9136;48.822;7.966;2023-04-20T09:46:44;99904.88;;;11.50;75.26
18022;BME280;9136;48.822;7.966;2023-04-20T09:49:34;99906.31;;;11.57;76.85
18022;BME280;9136;48.822;7.966;2023-04-20T09:52:23;99890.53;;;11.57;70.42
18022;BME280;9136;48.822;7.966;2023-04-20T09:55:16;99867.84;;;11.12;76.24
18022;BME280;9136;48.822;7.966;2023-04-20T09:58:04;99887.56;;;11.64;76.56
18022;BME280;9136;48.822;7.966;2023-04-20T10:00:52;99879.91;;;12.00;77.30
18022;BME280;9136;48.822;7.966;2023-04-20T10:03:40;99872.53;;;12.09;68.28
18022;BME280;9136;48.822;7.966;2023-04-20T10:06:30;99864.31;;;11.96;70.23
18022;BME280;9136;48.822;7.966;2023-04-20T10:09:20;99866.03;;;12.16;65.58
18022;BME280;9136;48.822;7.966;2023-04-20T10:12:12;99876.94;;;12.08;71.96
18022;BME280;9136;48.822;7.966;2023-04-20T10:15:00;99860.31;;;12.26;73.64
18022;BME280;9136;48.822;7.966;2023-04-20T10:17:48;99862.00;;;13.03;70.82
18022;BME280;9136;48.822;7.966;2023-04-20T10:20:36;99881.78;;;13.99;73.46
18022;BME280;9136;48.822;7.966;2023-04-20T10:23:24;99842.63;;;14.23;62.70
18022;BME280;9136;48.822;7.966;2023-04-20T10:26:13;99867.06;;;13.43;56.00
18022;BME280;9136;48.822;7.966;2023-04-20T10:29:03;99842.75;;;13.54;61.75
18022;BME280;9136;48.822;7.966;2023-04-20T10:31:53;99869.38;;;13.67;59.40
18022;BME280;9136;48.822;7.966;2023-04-20T10:34:41;99858.75;;;13.51;54.95
18022;BME280;9136;48.822;7.966;2023-04-20T10:37:29;99856.69;;;13.22;58.52
18022;BME280;9136;48.822;7.966;2023-04-20T10:40:24;99837.38;;;13.38;59.32
18022;BME280;9136;48.822;7.966;2023-04-20T10:43:23;99856.56;;;13.25;56.32
18022;BME280;9136;48.822;7.966;2023-04-20T10:46:19;99851.91;;;12.94;57.34
18022;BME280;9136;48.822;7.966;2023-04-20T10:49:07;99848.72;;;13.40;60.60
18022;BME280;9136;48.822;7.966;2023-04-20T10:51:55;99839.56;;;13.30;61.40
18022;BME280;9136;48.822;7.966;2023-04-20T10:54:43;99848.06;;;13.18;57.83
18022;BME280;9136;48.822;7.966;2023-04-20T10:57:32;99856.31;;;13.29;60.19
18022;BME280;9136;48.822;7.966;2023-04-20T11:00:23;99848.78;;;13.22;60.41
18022;BME280;9136;48.822;7.966;2023-04-20T11:03:17;99837.31;;;12.68;61.50
18022;BME280;9136;48.822;7.966;2023-04-20T11:06:05;99856.47;;;12.33;63.55
18022;BME280;9136;48.822;7.966;2023-04-20T11:08:53;99853.53;;;12.21;67.90
18022;BME280;9136;48.822;7.966;2023-04-20T11:11:41;99866.47;;;12.07;64.01
18022;BME280;9136;48.822;7.966;2023-04-20T11:14:30;99834.22;;;12.01;66.75
18022;BME280;9136;48.822;7.966;2023-04-20T11:17:19;99831.34;;;12.08;67.09
18022;BME280;9136;48.822;7.966;2023-04-20T11:20:10;99836.41;;;12.50;64.38
18022;BME280;9136;48.822;7.966;2023-04-20T11:22:59;99823.56;;;12.42;58.68
18022;BME280;9136;48.822;7.966;2023-04-20T11:25:53;99836.16;;;13.28;64.24
18022;BME280;9136;48.822;7.966;2023-04-20T11:28:55;99812.97;;;13.85;59.54
18022;BME280;9136;48.822;7.966;2023-04-20T11:31:49;99846.91;;;14.26;55.91
18022;BME280;9136;48.822;7.966;2023-04-20T11:34:38;99839.50;;;15.57;51.42
18022;BME280;9136;48.822;7.966;2023-04-20T11:37:44;99839.56;;;16.71;49.28
18022;BME280;9136;48.822;7.966;2023-04-20T11:40:36;99853.47;;;17.68;46.18
18022;BME280;9136;48.822;7.966;2023-04-20T11:43:24;99831.94;;;18.24;44.06
18022;BME280;9136;48.822;7.966;2023-04-20T11:46:14;99829.13;;;15.68;48.01
18022;BME280;9136;48.822;7.966;2023-04-20T11:49:02;99826.00;;;13.88;53.05
18022;BME280;9136;48.822;7.966;2023-04-20T11:51:51;99825.28;;;12.98;58.36
18022;BME280;9136;48.822;7.966;2023-04-20T11:54:40;99819.38;;;12.76;61.45
18022;BME280;9136;48.822;7.966;2023-04-20T11:57:28;99833.16;;;12.81;63.98
18022;BME280;9136;48.822;7.966;2023-04-20T12:00:18;99824.00;;;12.33;67.56
18022;BME280;9136;48.822;7.966;2023-04-20T12:03:07;99851.28;;;13.06;61.63
18022;BME280;9136;48.822;7.966;2023-04-20T12:05:55;99836.22;;;14.12;58.45
18022;BME280;9136;48.822;7.966;2023-04-20T12:08:43;99818.19;;;13.69;55.37
18022;BME280;9136;48.822;7.966;2023-04-20T12:11:34;99819.97;;;13.69;58.86
18022;BME280;9136;48.822;7.966;2023-04-20T12:14:27;99827.94;;;13.52;59.33
18022;BME280;9136;48.822;7.966;2023-04-20T12:17:18;99809.59;;;14.32;59.78
18022;BME280;9136;48.822;7.966;2023-04-20T12:20:07;99826.88;;;16.48;51.92
18022;BME280;9136;48.822;7.966;2023-04-20T12:22:57;99839.47;;;16.44;49.26
18022;BME280;9136;48.822;7.966;2023-04-20T12:25:47;99823.13;;;17.33;48.48
18022;BME280;9136;48.822;7.966;2023-04-20T12:28:41;99812.78;;;17.15;45.78
18022;BME280;9136;48.822;7.966;2023-04-20T12:31:30;99821.38;;;15.65;49.44
18022;BME280;9136;48.822;7.966;2023-04-20T12:34:20;99825.38;;;16.29;48.54
18022;BME280;9136;48.822;7.966;2023-04-20T12:37:10;99837.47;;;18.34;43.62
18022;BME280;9136;48.822;7.966;2023-04-20T12:40:00;99821.06;;;20.17;40.76
18022;BME280;9136;48.822;7.966;2023-04-20T12:42:49;99813.44;;;19.55;39.97
18022;BME280;9136;48.822;7.966;2023-04-20T12:45:40;99818.69;;;16.65;44.61
18022;BME280;9136;48.822;7.966;2023-04-20T12:48:28;99820.34;;;14.92;48.50
18022;BME280;9136;48.822;7.966;2023-04-20T12:51:16;99813.81;;;14.68;51.50
18022;BME280;9136;48.822;7.966;2023-04-20T12:54:04;99807.44;;;15.02;51.08
18022;BME280;9136;48.822;7.966;2023-04-20T12:56:52;99797.59;;;14.74;52.45
18022;BME280;9136;48.822;7.966;2023-04-20T12:59:41;99828.13;;;14.15;54.32
18022;BME280;9136;48.822;7.966;2023-04-20T13:02:31;99805.38;;;14.28;58.19
18022;BME280;9136;48.822;7.966;2023-04-20T13:05:20;99809.47;;;15.72;50.61
18022;BME280;9136;48.822;7.966;2023-04-20T13:08:08;99805.78;;;17.92;48.21
18022;BME280;9136;48.822;7.966;2023-04-20T13:10:56;99803.25;;;18.90;42.67
18022;BME280;9136;48.822;7.966;2023-04-20T13:13:47;99808.81;;;18.86;44.26
18022;BME280;9136;48.822;7.966;2023-04-20T13:16:37;99809.09;;;17.31;46.86
18022;BME280;9136;48.822;7.966;2023-04-20T13:19:27;99801.44;;;15.44;49.11
18022;BME280;9136;48.822;7.966;2023-04-20T13:22:19;99783.34;;;14.29;54.34
18022;BME280;9136;48.822;7.966;2023-04-20T13:25:08;99793.00;;;14.46;53.06
18022;BME280;9136;48.822;7.966;2023-04-20T13:27:56;99794.28;;;15.46;49.57
18022;BME280;9136;48.822;7.966;2023-04-20T13:30:44;99783.47;;;15.93;49.64
18022;BME280;9136;48.822;7.966;2023-04-20T13:33:34;99790.75;;;16.74;50.76
18022;BME280;9136;48.822;7.966;2023-04-20T13:36:24;99793.28;;;17.42;46.11
18022;BME280;9136;48.822;7.966;2023-04-20T13:39:13;99782.81;;;16.59;47.75
18022;BME280;9136;48.822;7.966;2023-04-20T13:42:02;99790.72;;;15.31;48.05
18022;BME280;9136;48.822;7.966;2023-04-20T13:44:51;99793.66;;;14.65;52.55
18022;BME280;9136;48.822;7.966;2023-04-20T13:47:40;99800.81;;;14.31;54.08
18022;BME280;9136;48.822;7.966;2023-04-20T13:50:28;99783.75;;;16.03;51.08
18022;BME280;9136;48.822;7.966;2023-04-20T13:53:18;99810.16;;;19.16;43.11
18022;BME280;9136;48.822;7.966;2023-04-20T13:56:06;99796.00;;;17.93;44.19
18022;BME280;9136;48.822;7.966;2023-04-20T13:58:54;99791.47;;;15.19;49.18
18022;BME280;9136;48.822;7.966;2023-04-20T14:01:43;99789.84;;;14.55;53.39
18022;BME280;9136;48.822;7.966;2023-04-20T14:04:31;99777.91;;;13.99;55.40
18022;BME280;9136;48.822;7.966;2023-04-20T14:07:19;99792.28;;;14.42;57.92
18022;BME280;9136;48.822;7.966;2023-04-20T14:10:12;99784.19;;;14.29;58.07
18022;BME280;9136;48.822;7.966;2023-04-20T14:13:01;99777.31;;;13.61;60.96
18022;BME280;9136;48.822;7.966;2023-04-20T14:15:50;99805.44;;;15.21;58.57
18022;BME280;9136;48.822;7.966;2023-04-20T14:18:38;99784.69;;;19.60;44.47
18022;BME280;9136;48.822;7.966;2023-04-20T14:21:30;99784.63;;;21.47;40.89
18022;BME280;9136;48.822;7.966;2023-04-20T14:24:18;99764.78;;;22.81;37.40
18022;BME280;9136;48.822;7.966;2023-04-20T14:27:10;99784.94;;;20.57;39.64
18022;BME280;9136;48.822;7.966;2023-04-20T14:29:58;99775.84;;;18.76;41.13
18022;BME280;9136;48.822;7.966;2023-04-20T14:32:53;99765.50;;;19.20;44.11
18022;BME280;9136;48.822;7.966;2023-04-20T14:35:41;99758.03;;;20.49;40.19
18022;BME280;9136;48.822;7.966;2023-04-20T14:38:34;99775.00;;;20.60;39.49
18022;BME280;9136;48.822;7.966;2023-04-20T14:41:22;99775.34;;;21.30;39.19
18022;BME280;9136;48.822;7.966;2023-04-20T14:44:14;99778.88;;;20.55;40.69
18022;BME280;9136;48.822;7.966;2023-04-20T14:47:02;99756.84;;;18.94;43.28
18022;BME280;9136;48.822;7.966;2023-04-20T14:49:49;99741.03;;;18.43;43.53
18022;BME280;9136;48.822;7.966;2023-04-20T14:52:41;99773.16;;;17.12;46.52
18022;BME280;9136;48.822;7.966;2023-04-20T14:55:29;99782.09;;;16.84;47.07
18022;BME280;9136;48.822;7.966;2023-04-20T14:58:19;99776.75;;;16.16;49.75
18022;BME280;9136;48.822;7.966;2023-04-20T15:01:09;99786.78;;;15.53;50.38
18022;BME280;9136;48.822;7.966;2023-04-20T15:03:57;99778.69;;;14.96;52.43
18022;BME280;9136;48.822;7.966;2023-04-20T15:06:45;99787.44;;;14.82;54.83
18022;BME280;9136;48.822;7.966;2023-04-20T15:09:34;99776.75;;;14.36;57.43
18022;BME280;9136;48.822;7.966;2023-04-20T15:12:26;99808.00;;;14.45;60.59